sensor_id;sensor_type;location;lat;lon;timestamp;P1;durP1;ratioP1;P2;durP2;ratioP2
45322;SDS011;31382;50.200;8.674;2024-01-11T00:02:16;36.97;;;12.88;;
45322;SDS011;31382;50.200;8.674;2024-01-11T00:07:19;36.22;;;11.05;;
45322;SDS011;31382;50.200;8.674;2024-01-11T00:12:21;29.17;;;10.75;;
45322;SDS011;31382;50.200;8.674;2024-01-11T00:17:22;32.90;;;12.00;;
45322;SDS011;31382;50.200;8.674;2024-01-11T00:22:23;27.40;;;10.90;;
45322;SDS011;31382;50.200;8.674;2024-01-11T00:27:25;33.67;;;11.30;;
45322;SDS011;31382;50.200;8.674;2024-01-11T00:32:26;31.65;;;11.57;;
45322;SDS011;31382;50.200;8.674;2024-01-11T00:37:28;35.33;;;10.85;;
45322;SDS011;31382;50.200;8.674;2024-01-11T00:42:29;28.50;;;10.55;;
45322;SDS011;31382;50.200;8.674;2024-01-11T00:47:30;30.80;;;10.27;;
45322;SDS011;31382;50.200;8.674;2024-01-11T00:52:32;30.98;;;10.88;;
45322;SDS011;31382;50.200;8.674;2024-01-11T00:57:33;35.08;;;10.85;;
45322;SDS011;31382;50.200;8.674;2024-01-11T01:02:35;30.10;;;11.45;;
45322;SDS011;31382;50.200;8.674;2024-01-11T01:07:36;28.65;;;10.57;;
45322;SDS011;31382;50.200;8.674;2024-01-11T01:12:38;27.42;;;9.93;;
45322;SDS011;31382;50.200;8.674;2024-01-11T01:17:39;28.50;;;11.23;;
45322;SDS011;31382;50.200;8.674;2024-01-11T01:22:41;31.58;;;9.95;;
45322;SDS011;31382;50.200;8.674;2024-01-11T01:27:42;28.30;;;10.40;;
45322;SDS011;31382;50.200;8.674;2024-01-11T01:32:44;34.22;;;10.75;;
45322;SDS011;31382;50.200;8.674;2024-01-11T01:37:45;26.83;;;12.07;;
45322;SDS011;31382;50.200;8.674;2024-01-11T01:42:48;26.88;;;10.45;;
45322;SDS011;31382;50.200;8.674;2024-01-11T01:47:49;28.05;;;10.85;;
45322;SDS011;31382;50.200;8.674;2024-01-11T01:52:51;27.88;;;10.52;;
45322;SDS011;31382;50.200;8.674;2024-01-11T01:57:53;31.40;;;11.25;;
45322;SDS011;31382;50.200;8.674;2024-01-11T02:02:55;34.67;;;11.65;;
45322;SDS011;31382;50.200;8.674;2024-01-11T02:07:57;27.52;;;10.60;;
45322;SDS011;31382;50.200;8.674;2024-01-11T02:13:02;25.42;;;11.02;;
45322;SDS011;31382;50.200;8.674;2024-01-11T02:18:03;30.00;;;11.40;;
45322;SDS011;31382;50.200;8.674;2024-01-11T02:23:05;32.45;;;12.35;;
45322;SDS011;31382;50.200;8.674;2024-01-11T02:28:13;31.25;;;11.50;;
45322;SDS011;31382;50.200;8.674;2024-01-11T02:33:14;44.33;;;11.20;;
45322;SDS011;31382;50.200;8.674;2024-01-11T02:38:17;33.33;;;11.73;;
45322;SDS011;31382;50.200;8.674;2024-01-11T02:43:19;28.63;;;11.38;;
45322;SDS011;31382;50.200;8.674;2024-01-11T02:48:20;36.05;;;12.07;;
45322;SDS011;31382;50.200;8.674;2024-01-11T02:53:22;35.03;;;12.25;;
45322;SDS011;31382;50.200;8.674;2024-01-11T02:58:23;33.30;;;10.77;;
45322;SDS011;31382;50.200;8.674;2024-01-11T03:03:24;32.05;;;10.35;;
45322;SDS011;31382;50.200;8.674;2024-01-11T03:08:27;35.60;;;11.05;;
45322;SDS011;31382;50.200;8.674;2024-01-11T03:13:29;39.47;;;12.38;;
45322;SDS011;31382;50.200;8.674;2024-01-11T03:18:30;29.48;;;10.20;;
45322;SDS011;31382;50.200;8.674;2024-01-11T03:23:32;32.15;;;11.45;;
45322;SDS011;31382;50.200;8.674;2024-01-11T03:28:34;31.70;;;10.95;;
45322;SDS011;31382;50.200;8.674;2024-01-11T03:33:35;32.05;;;10.77;;
45322;SDS011;31382;50.200;8.674;2024-01-11T03:38:37;32.55;;;11.35;;
45322;SDS011;31382;50.200;8.674;2024-01-11T03:43:39;28.70;;;12.55;;
45322;SDS011;31382;50.200;8.674;2024-01-11T03:48:40;36.22;;;12.45;;
45322;SDS011;31382;50.200;8.674;2024-01-11T03:53:42;40.38;;;12.45;;
45322;SDS011;31382;50.200;8.674;2024-01-11T03:58:44;35.75;;;12.20;;
45322;SDS011;31382;50.200;8.674;2024-01-11T04:03:46;32.45;;;11.68;;
45322;SDS011;31382;50.200;8.674;2024-01-11T04:08:48;44.08;;;13.73;;
45322;SDS011;31382;50.200;8.674;2024-01-11T04:13:49;38.60;;;13.43;;
45322;SDS011;31382;50.200;8.674;2024-01-11T04:18:51;35.22;;;12.65;;
45322;SDS011;31382;50.200;8.674;2024-01-11T04:23:52;37.75;;;12.35;;
45322;SDS011;31382;50.200;8.674;2024-01-11T04:28:54;35.80;;;12.73;;
45322;SDS011;31382;50.200;8.674;2024-01-11T04:34:00;42.47;;;15.07;;
45322;SDS011;31382;50.200;8.674;2024-01-11T04:39:02;43.72;;;14.25;;
45322;SDS011;31382;50.200;8.674;2024-01-11T04:44:03;36.55;;;14.10;;
45322;SDS011;31382;50.200;8.674;2024-01-11T04:49:05;44.80;;;15.40;;
45322;SDS011;31382;50.200;8.674;2024-01-11T04:54:06;34.63;;;13.63;;
45322;SDS011;31382;50.200;8.674;2024-01-11T04:59:08;35.28;;;13.68;;
45322;SDS011;31382;50.200;8.674;2024-01-11T05:04:09;42.03;;;13.40;;
45322;SDS011;31382;50.200;8.674;2024-01-11T05:09:11;44.72;;;14.18;;
45322;SDS011;31382;50.200;8.674;2024-01-11T05:14:12;42.72;;;13.60;;
45322;SDS011;31382;50.200;8.674;2024-01-11T05:19:14;35.75;;;12.50;;
45322;SDS011;31382;50.200;8.674;2024-01-11T05:24:15;38.78;;;12.45;;
45322;SDS011;31382;50.200;8.674;2024-01-11T05:29:17;39.85;;;13.32;;
45322;SDS011;31382;50.200;8.674;2024-01-11T05:34:18;38.22;;;12.48;;
45322;SDS011;31382;50.200;8.674;2024-01-11T05:39:20;44.47;;;13.80;;
45322;SDS011;31382;50.200;8.674;2024-01-11T05:44:22;37.05;;;12.73;;
45322;SDS011;31382;50.200;8.674;2024-01-11T05:49:23;31.80;;;11.90;;
45322;SDS011;31382;50.200;8.674;2024-01-11T05:54:24;38.03;;;13.40;;
45322;SDS011;31382;50.200;8.674;2024-01-11T05:59:27;39.20;;;12.88;;
45322;SDS011;31382;50.200;8.674;2024-01-11T06:04:29;35.00;;;12.15;;
45322;SDS011;31382;50.200;8.674;2024-01-11T06:09:33;39.15;;;13.10;;
45322;SDS011;31382;50.200;8.674;2024-01-11T06:14:35;35.05;;;13.70;;
45322;SDS011;31382;50.200;8.674;2024-01-11T06:19:37;43.72;;;14.25;;
45322;SDS011;31382;50.200;8.674;2024-01-11T06:24:39;40.50;;;13.07;;
45322;SDS011;31382;50.200;8.674;2024-01-11T06:29:41;42.00;;;14.45;;
45322;SDS011;31382;50.200;8.674;2024-01-11T06:34:43;46.90;;;14.82;;
45322;SDS011;31382;50.200;8.674;2024-01-11T06:39:47;46.15;;;15.77;;
45322;SDS011;31382;50.200;8.674;2024-01-11T06:44:48;50.20;;;16.75;;
45322;SDS011;31382;50.200;8.674;2024-01-11T06:49:50;48.85;;;15.25;;
45322;SDS011;31382;50.200;8.674;2024-01-11T06:54:51;52.03;;;15.43;;
45322;SDS011;31382;50.200;8.674;2024-01-11T06:59:52;42.35;;;15.65;;
45322;SDS011;31382;50.200;8.674;2024-01-11T07:04:54;43.90;;;15.68;;
45322;SDS011;31382;50.200;8.674;2024-01-11T07:09:55;45.10;;;16.73;;
45322;SDS011;31382;50.200;8.674;2024-01-11T07:14:57;40.95;;;15.45;;
45322;SDS011;31382;50.200;8.674;2024-01-11T07:19:58;51.42;;;16.00;;
45322;SDS011;31382;50.200;8.674;2024-01-11T07:25:00;52.28;;;16.23;;
45322;SDS011;31382;50.200;8.674;2024-01-11T07:30:02;47.95;;;14.30;;
45322;SDS011;31382;50.200;8.674;2024-01-11T07:35:04;53.78;;;15.85;;
45322;SDS011;31382;50.200;8.674;2024-01-11T07:40:13;40.15;;;14.30;;
45322;SDS011;31382;50.200;8.674;2024-01-11T07:45:15;43.15;;;15.30;;
45322;SDS011;31382;50.200;8.674;2024-01-11T07:50:16;40.88;;;14.82;;
45322;SDS011;31382;50.200;8.674;2024-01-11T07:55:18;49.63;;;17.80;;
45322;SDS011;31382;50.200;8.674;2024-01-11T08:00:24;40.90;;;14.52;;
45322;SDS011;31382;50.200;8.674;2024-01-11T08:05:26;42.70;;;16.05;;
45322;SDS011;31382;50.200;8.674;2024-01-11T08:10:27;51.17;;;16.10;;
45322;SDS011;31382;50.200;8.674;2024-01-11T08:15:29;46.50;;;15.77;;
45322;SDS011;31382;50.200;8.674;2024-01-11T08:20:30;39.58;;;15.30;;
45322;SDS011;31382;50.200;8.674;2024-01-11T08:25:32;53.60;;;17.30;;
45322;SDS011;31382;50.200;8.674;2024-01-11T08:30:33;51.88;;;19.35;;
45322;SDS011;31382;50.200;8.674;2024-01-11T08:35:35;48.80;;;17.45;;
45322;SDS011;31382;50.200;8.674;2024-01-11T08:40:36;47.75;;;14.48;;
45322;SDS011;31382;50.200;8.674;2024-01-11T08:45:38;44.45;;;14.40;;
45322;SDS011;31382;50.200;8.674;2024-01-11T08:50:39;47.42;;;15.93;;
45322;SDS011;31382;50.200;8.674;2024-01-11T08:55:41;43.33;;;15.05;;
45322;SDS011;31382;50.200;8.674;2024-01-11T09:00:45;41.22;;;15.38;;
45322;SDS011;31382;50.200;8.674;2024-01-11T09:05:47;47.13;;;15.43;;
45322;SDS011;31382;50.200;8.674;2024-01-11T09:10:48;38.08;;;14.50;;
45322;SDS011;31382;50.200;8.674;2024-01-11T09:15:50;39.72;;;14.50;;
45322;SDS011;31382;50.200;8.674;2024-01-11T09:20:51;39.25;;;14.85;;
45322;SDS011;31382;50.200;8.674;2024-01-11T09:25:53;40.33;;;15.73;;
45322;SDS011;31382;50.200;8.674;2024-01-11T09:30:54;34.58;;;14.25;;
45322;SDS011;31382;50.200;8.674;2024-01-11T09:36:01;42.00;;;14.82;;
45322;SDS011;31382;50.200;8.674;2024-01-11T09:41:05;36.53;;;14.05;;
45322;SDS011;31382;50.200;8.674;2024-01-11T09:46:12;40.92;;;15.32;;
45322;SDS011;31382;50.200;8.674;2024-01-11T09:51:14;36.50;;;13.98;;
45322;SDS011;31382;50.200;8.674;2024-01-11T09:56:15;37.35;;;13.77;;
45322;SDS011;31382;50.200;8.674;2024-01-11T10:01:17;35.28;;;13.70;;
45322;SDS011;31382;50.200;8.674;2024-01-11T10:06:20;45.75;;;15.18;;
45322;SDS011;31382;50.200;8.674;2024-01-11T10:11:23;40.85;;;13.85;;
45322;SDS011;31382;50.200;8.674;2024-01-11T10:16:24;34.13;;;13.02;;
45322;SDS011;31382;50.200;8.674;2024-01-11T10:21:26;38.20;;;13.77;;
45322;SDS011;31382;50.200;8.674;2024-01-11T10:26:29;33.72;;;15.02;;
45322;SDS011;31382;50.200;8.674;2024-01-11T10:31:31;43.80;;;15.00;;
45322;SDS011;31382;50.200;8.674;2024-01-11T10:36:32;36.53;;;14.35;;
45322;SDS011;31382;50.200;8.674;2024-01-11T10:41:38;37.38;;;14.27;;
45322;SDS011;31382;50.200;8.674;2024-01-11T10:46:42;43.00;;;14.77;;
45322;SDS011;31382;50.200;8.674;2024-01-11T10:51:49;31.45;;;12.50;;
45322;SDS011;31382;50.200;8.674;2024-01-11T10:56:55;34.33;;;15.02;;
45322;SDS011;31382;50.200;8.674;2024-01-11T11:02:04;38.75;;;14.75;;
45322;SDS011;31382;50.200;8.674;2024-01-11T11:07:13;34.55;;;12.93;;
45322;SDS011;31382;50.200;8.674;2024-01-11T11:12:16;28.98;;;11.73;;
45322;SDS011;31382;50.200;8.674;2024-01-11T11:17:19;30.02;;;12.20;;
45322;SDS011;31382;50.200;8.674;2024-01-11T11:22:21;26.33;;;12.18;;
45322;SDS011;31382;50.200;8.674;2024-01-11T11:27:22;35.05;;;12.50;;
45322;SDS011;31382;50.200;8.674;2024-01-11T11:32:36;27.23;;;10.43;;
45322;SDS011;31382;50.200;8.674;2024-01-11T11:37:39;30.95;;;11.75;;
45322;SDS011;31382;50.200;8.674;2024-01-11T11:42:40;31.45;;;12.85;;
45322;SDS011;31382;50.200;8.674;2024-01-11T11:47:42;29.75;;;12.43;;
45322;SDS011;31382;50.200;8.674;2024-01-11T11:52:47;28.67;;;11.40;;
45322;SDS011;31382;50.200;8.674;2024-01-11T11:57:55;23.98;;;10.60;;
45322;SDS011;31382;50.200;8.674;2024-01-11T12:02:57;30.35;;;12.77;;
45322;SDS011;31382;50.200;8.674;2024-01-11T12:07:59;29.00;;;14.30;;
45322;SDS011;31382;50.200;8.674;2024-01-11T12:13:01;31.65;;;11.02;;
45322;SDS011;31382;50.200;8.674;2024-01-11T12:18:03;26.13;;;11.93;;
45322;SDS011;31382;50.200;8.674;2024-01-11T12:23:05;31.25;;;13.02;;
45322;SDS011;31382;50.200;8.674;2024-01-11T12:28:06;25.67;;;10.20;;
45322;SDS011;31382;50.200;8.674;2024-01-11T12:33:08;32.00;;;11.77;;
45322;SDS011;31382;50.200;8.674;2024-01-11T12:38:11;28.73;;;12.73;;
45322;SDS011;31382;50.200;8.674;2024-01-11T12:43:12;26.90;;;10.95;;
45322;SDS011;31382;50.200;8.674;2024-01-11T12:48:14;28.45;;;12.07;;
45322;SDS011;31382;50.200;8.674;2024-01-11T12:53:18;22.55;;;9.90;;
45322;SDS011;31382;50.200;8.674;2024-01-11T12:58:20;26.15;;;10.50;;
45322;SDS011;31382;50.200;8.674;2024-01-11T13:03:24;25.60;;;10.73;;
45322;SDS011;31382;50.200;8.674;2024-01-11T13:08:26;28.95;;;12.43;;
45322;SDS011;31382;50.200;8.674;2024-01-11T13:13:28;27.67;;;12.43;;
45322;SDS011;31382;50.200;8.674;2024-01-11T13:18:32;25.38;;;11.35;;
45322;SDS011;31382;50.200;8.674;2024-01-11T13:23:33;26.42;;;12.00;;
45322;SDS011;31382;50.200;8.674;2024-01-11T13:28:35;29.88;;;12.25;;
45322;SDS011;31382;50.200;8.674;2024-01-11T13:33:37;30.25;;;13.07;;
45322;SDS011;31382;50.200;8.674;2024-01-11T13:38:38;23.17;;;9.70;;
45322;SDS011;31382;50.200;8.674;2024-01-11T13:43:40;21.27;;;9.75;;
45322;SDS011;31382;50.200;8.674;2024-01-11T13:48:41;24.77;;;9.50;;
45322;SDS011;31382;50.200;8.674;2024-01-11T13:53:43;22.20;;;8.93;;
45322;SDS011;31382;50.200;8.674;2024-01-11T13:58:44;24.00;;;9.20;;
45322;SDS011;31382;50.200;8.674;2024-01-11T14:03:46;20.95;;;9.85;;
45322;SDS011;31382;50.200;8.674;2024-01-11T14:08:47;25.83;;;10.20;;
45322;SDS011;31382;50.200;8.674;2024-01-11T14:13:49;22.50;;;10.35;;
45322;SDS011;31382;50.200;8.674;2024-01-11T14:18:50;16.50;;;8.70;;
45322;SDS011;31382;50.200;8.674;2024-01-11T14:23:52;23.02;;;10.23;;
45322;SDS011;31382;50.200;8.674;2024-01-11T14:28:53;24.58;;;10.73;;
45322;SDS011;31382;50.200;8.674;2024-01-11T14:33:55;26.52;;;10.93;;
45322;SDS011;31382;50.200;8.674;2024-01-11T14:38:57;20.85;;;9.60;;
45322;SDS011;31382;50.200;8.674;2024-01-11T14:43:58;21.13;;;8.35;;
45322;SDS011;31382;50.200;8.674;2024-01-11T14:49:01;20.40;;;7.88;;
45322;SDS011;31382;50.200;8.674;2024-01-11T14:54:03;23.10;;;11.10;;
45322;SDS011;31382;50.200;8.674;2024-01-11T14:59:05;17.27;;;7.47;;
45322;SDS011;31382;50.200;8.674;2024-01-11T15:04:06;13.93;;;5.97;;
45322;SDS011;31382;50.200;8.674;2024-01-11T15:09:08;19.17;;;6.88;;
45322;SDS011;31382;50.200;8.674;2024-01-11T15:14:13;15.27;;;6.07;;
45322;SDS011;31382;50.200;8.674;2024-01-11T15:19:15;17.58;;;6.00;;
45322;SDS011;31382;50.200;8.674;2024-01-11T15:24:16;16.33;;;7.07;;
45322;SDS011;31382;50.200;8.674;2024-01-11T15:29:21;14.35;;;5.95;;
45322;SDS011;31382;50.200;8.674;2024-01-11T15:34:23;19.20;;;7.22;;
45322;SDS011;31382;50.200;8.674;2024-01-11T15:39:25;19.02;;;7.50;;
45322;SDS011;31382;50.200;8.674;2024-01-11T15:44:30;18.08;;;7.78;;
45322;SDS011;31382;50.200;8.674;2024-01-11T15:49:35;16.95;;;7.72;;
45322;SDS011;31382;50.200;8.674;2024-01-11T15:54:36;17.83;;;8.30;;
45322;SDS011;31382;50.200;8.674;2024-01-11T15:59:38;18.05;;;7.18;;
45322;SDS011;31382;50.200;8.674;2024-01-11T16:04:39;20.30;;;8.05;;
45322;SDS011;31382;50.200;8.674;2024-01-11T16:09:42;23.20;;;8.50;;
45322;SDS011;31382;50.200;8.674;2024-01-11T16:14:45;20.45;;;8.52;;
45322;SDS011;31382;50.200;8.674;2024-01-11T16:19:47;18.15;;;7.82;;
45322;SDS011;31382;50.200;8.674;2024-01-11T16:24:48;15.00;;;5.80;;
45322;SDS011;31382;50.200;8.674;2024-01-11T16:29:50;11.80;;;4.25;;
45322;SDS011;31382;50.200;8.674;2024-01-11T16:34:52;12.38;;;6.53;;
45322;SDS011;31382;50.200;8.674;2024-01-11T16:39:53;13.88;;;6.15;;
45322;SDS011;31382;50.200;8.674;2024-01-11T16:44:55;16.50;;;6.45;;
45322;SDS011;31382;50.200;8.674;2024-01-11T16:49:56;15.70;;;6.65;;
45322;SDS011;31382;50.200;8.674;2024-01-11T16:54:58;31.00;;;10.90;;
45322;SDS011;31382;50.200;8.674;2024-01-11T17:00:00;19.60;;;8.90;;
45322;SDS011;31382;50.200;8.674;2024-01-11T17:05:02;29.65;;;11.73;;
45322;SDS011;31382;50.200;8.674;2024-01-11T17:10:04;38.20;;;13.90;;
45322;SDS011;31382;50.200;8.674;2024-01-11T17:15:06;34.75;;;13.98;;
45322;SDS011;31382;50.200;8.674;2024-01-11T17:20:09;42.78;;;14.80;;
45322;SDS011;31382;50.200;8.674;2024-01-11T17:25:11;29.35;;;12.23;;
45322;SDS011;31382;50.200;8.674;2024-01-11T17:30:13;20.45;;;9.02;;
45322;SDS011;31382;50.200;8.674;2024-01-11T17:35:14;20.42;;;8.13;;
45322;SDS011;31382;50.200;8.674;2024-01-11T17:40:16;17.02;;;7.78;;
45322;SDS011;31382;50.200;8.674;2024-01-11T17:45:17;20.38;;;8.23;;
45322;SDS011;31382;50.200;8.674;2024-01-11T17:50:19;26.50;;;11.18;;
45322;SDS011;31382;50.200;8.674;2024-01-11T17:55:20;25.88;;;12.57;;
45322;SDS011;31382;50.200;8.674;2024-01-11T18:00:22;20.45;;;10.27;;
45322;SDS011;31382;50.200;8.674;2024-01-11T18:05:23;23.73;;;10.18;;
45322;SDS011;31382;50.200;8.674;2024-01-11T18:10:25;21.92;;;8.07;;
45322;SDS011;31382;50.200;8.674;2024-01-11T18:15:26;17.42;;;7.53;;
45322;SDS011;31382;50.200;8.674;2024-01-11T18:20:28;21.33;;;9.20;;
45322;SDS011;31382;50.200;8.674;2024-01-11T18:25:30;23.25;;;9.60;;
45322;SDS011;31382;50.200;8.674;2024-01-11T18:30:32;24.55;;;10.27;;
45322;SDS011;31382;50.200;8.674;2024-01-11T18:35:33;16.50;;;7.78;;
45322;SDS011;31382;50.200;8.674;2024-01-11T18:40:35;23.65;;;8.90;;
45322;SDS011;31382;50.200;8.674;2024-01-11T18:45:37;23.65;;;9.32;;
45322;SDS011;31382;50.200;8.674;2024-01-11T18:50:39;20.70;;;8.48;;
45322;SDS011;31382;50.200;8.674;2024-01-11T18:55:40;23.27;;;9.43;;
45322;SDS011;31382;50.200;8.674;2024-01-11T19:00:42;22.85;;;9.25;;
45322;SDS011;31382;50.200;8.674;2024-01-11T19:05:43;27.30;;;7.70;;
45322;SDS011;31382;50.200;8.674;2024-01-11T19:10:45;17.98;;;8.18;;
45322;SDS011;31382;50.200;8.674;2024-01-11T19:15:46;27.02;;;10.05;;
45322;SDS011;31382;50.200;8.674;2024-01-11T19:20:49;23.30;;;8.57;;
45322;SDS011;31382;50.200;8.674;2024-01-11T19:25:54;20.60;;;8.43;;
45322;SDS011;31382;50.200;8.674;2024-01-11T19:30:56;22.15;;;9.30;;
45322;SDS011;31382;50.200;8.674;2024-01-11T19:35:58;21.13;;;8.80;;
45322;SDS011;31382;50.200;8.674;2024-01-11T19:40:59;21.35;;;9.85;;
45322;SDS011;31382;50.200;8.674;2024-01-11T19:46:01;18.00;;;8.60;;
45322;SDS011;31382;50.200;8.674;2024-01-11T19:51:02;16.75;;;8.02;;
45322;SDS011;31382;50.200;8.674;2024-01-11T19:56:17;18.88;;;8.70;;
45322;SDS011;31382;50.200;8.674;2024-01-11T20:01:20;19.38;;;7.07;;
45322;SDS011;31382;50.200;8.674;2024-01-11T20:06:21;18.90;;;7.38;;
45322;SDS011;31382;50.200;8.674;2024-01-11T20:11:23;17.90;;;7.10;;
45322;SDS011;31382;50.200;8.674;2024-01-11T20:16:25;20.05;;;7.25;;
45322;SDS011;31382;50.200;8.674;2024-01-11T20:21:27;17.15;;;6.75;;
45322;SDS011;31382;50.200;8.674;2024-01-11T20:26:29;12.80;;;6.40;;
45322;SDS011;31382;50.200;8.674;2024-01-11T20:31:30;14.82;;;5.72;;
45322;SDS011;31382;50.200;8.674;2024-01-11T20:36:32;13.90;;;5.72;;
45322;SDS011;31382;50.200;8.674;2024-01-11T20:41:34;12.50;;;6.38;;
45322;SDS011;31382;50.200;8.674;2024-01-11T20:46:43;17.95;;;7.00;;
45322;SDS011;31382;50.200;8.674;2024-01-11T20:51:44;17.70;;;7.28;;
45322;SDS011;31382;50.200;8.674;2024-01-11T20:56:47;15.38;;;5.72;;
45322;SDS011;31382;50.200;8.674;2024-01-11T21:01:48;16.90;;;6.05;;
45322;SDS011;31382;50.200;8.674;2024-01-11T21:06:50;14.75;;;5.78;;
45322;SDS011;31382;50.200;8.674;2024-01-11T21:11:51;16.52;;;6.85;;
45322;SDS011;31382;50.200;8.674;2024-01-11T21:16:53;12.18;;;5.60;;
45322;SDS011;31382;50.200;8.674;2024-01-11T21:21:54;11.82;;;4.97;;
45322;SDS011;31382;50.200;8.674;2024-01-11T21:26:56;17.00;;;5.45;;
45322;SDS011;31382;50.200;8.674;2024-01-11T21:31:57;13.75;;;6.25;;
45322;SDS011;31382;50.200;8.674;2024-01-11T21:36:59;13.35;;;5.60;;
45322;SDS011;31382;50.200;8.674;2024-01-11T21:42:01;11.82;;;4.78;;
45322;SDS011;31382;50.200;8.674;2024-01-11T21:47:02;11.27;;;5.43;;
45322;SDS011;31382;50.200;8.674;2024-01-11T21:52:04;13.93;;;5.40;;
45322;SDS011;31382;50.200;8.674;2024-01-11T21:57:05;13.32;;;6.07;;
45322;SDS011;31382;50.200;8.674;2024-01-11T22:02:07;11.77;;;5.40;;
45322;SDS011;31382;50.200;8.674;2024-01-11T22:07:09;9.75;;;4.53;;
45322;SDS011;31382;50.200;8.674;2024-01-11T22:12:13;9.80;;;5.28;;
45322;SDS011;31382;50.200;8.674;2024-01-11T22:17:15;11.73;;;4.07;;
45322;SDS011;31382;50.200;8.674;2024-01-11T22:22:16;10.27;;;4.60;;
45322;SDS011;31382;50.200;8.674;2024-01-11T22:27:18;9.45;;;4.10;;
45322;SDS011;31382;50.200;8.674;2024-01-11T22:32:19;11.88;;;4.35;;
45322;SDS011;31382;50.200;8.674;2024-01-11T22:37:21;12.13;;;5.00;;
45322;SDS011;31382;50.200;8.674;2024-01-11T22:42:22;7.22;;;3.60;;
45322;SDS011;31382;50.200;8.674;2024-01-11T22:47:24;7.85;;;3.75;;
45322;SDS011;31382;50.200;8.674;2024-01-11T22:52:26;8.23;;;3.25;;
45322;SDS011;31382;50.200;8.674;2024-01-11T22:57:27;8.45;;;3.55;;
45322;SDS011;31382;50.200;8.674;2024-01-11T23:02:29;6.68;;;2.95;;
45322;SDS011;31382;50.200;8.674;2024-01-11T23:07:30;8.05;;;3.50;;
45322;SDS011;31382;50.200;8.674;2024-01-11T23:12:31;6.68;;;3.05;;
45322;SDS011;31382;50.200;8.674;2024-01-11T23:17:33;6.20;;;2.28;;
45322;SDS011;31382;50.200;8.674;2024-01-11T23:22:35;8.10;;;2.00;;
45322;SDS011;31382;50.200;8.674;2024-01-11T23:27:36;4.15;;;2.13;;
45322;SDS011;31382;50.200;8.674;2024-01-11T23:32:38;5.60;;;2.88;;
45322;SDS011;31382;50.200;8.674;2024-01-11T23:37:40;8.68;;;2.90;;
45322;SDS011;31382;50.200;8.674;2024-01-11T23:42:41;4.22;;;2.08;;
45322;SDS011;31382;50.200;8.674;2024-01-11T23:47:43;6.25;;;1.63;;
45322;SDS011;31382;50.200;8.674;2024-01-11T23:52:44;6.10;;;2.00;;
45322;SDS011;31382;50.200;8.674;2024-01-11T23:57:45;5.53;;;2.17;;
